Time;durP1;ratioP1;P1;durP2;ratioP2;P2;SDS_P1;SDS_P2;PMS_P1;PMS_P2;Temp;Humidity;BMP_temperature;BMP_pressure;BME280_temperature;BME280_humidity;BME280_pressure;Samples;Min_cycle;Max_cycle;Signal;HPM_P1;HPM_P2
2023/09/24 00:02:04;;;;;;;7.40;3.65;;;11.50;40.70;;;;;;7390023;19;20078;-67
2023/09/24 00:05:19;;;;;;;7.05;3.78;;;11.50;41.60;;;;;;7388152;19;20035;-69
2023/09/24 00:07:52;;;;;;;9.27;5.10;;;11.50;43.70;;;;;;7391541;19;20047;-66
2023/09/24 00:10:24;;;;;;;4.70;3.78;;;11.40;43.40;;;;;;7392695;19;20078;-68
2023/09/24 00:12:56;;;;;;;4.40;3.45;;;11.40;48.60;;;;;;7391540;19;20082;-67
2023/09/24 00:15:27;;;;;;;4.78;3.95;;;11.40;52.70;;;;;;7389377;19;20758;-71
2023/09/24 00:17:56;;;;;;;4.60;3.75;;;11.40;53.70;;;;;;7391084;19;20010;-70
2023/09/24 00:20:27;;;;;;;6.65;3.95;;;11.40;53.00;;;;;;7390986;19;20014;-70
2023/09/24 00:23:00;;;;;;;5.45;3.22;;;11.50;52.80;;;;;;7391633;19;20031;-71
2023/09/24 00:25:30;;;;;;;4.97;3.08;;;11.40;51.40;;;;;;7391589;19;20006;-70
2023/09/24 00:28:00;;;;;;;5.57;2.85;;;11.40;49.80;;;;;;7391994;19;20010;-72
2023/09/24 00:30:31;;;;;;;5.63;2.40;;;11.40;39.50;;;;;;7392849;19;20078;-72
2023/09/24 00:33:03;;;;;;;3.42;1.98;;;11.40;31.20;;;;;;7392305;19;20039;-72
2023/09/24 00:35:34;;;;;;;3.70;2.03;;;11.40;27.20;;;;;;7390552;19;20018;-71
2023/09/24 00:38:07;;;;;;;3.28;1.90;;;11.30;25.60;;;;;;7390746;19;20031;-71
2023/09/24 00:40:38;;;;;;;3.20;2.50;;;11.30;24.60;;;;;;7391222;19;20049;-70
2023/09/24 00:43:30;;;;;;;5.78;2.80;;;11.20;25.50;;;;;;7390674;19;20518;-71
2023/09/24 00:46:01;;;;;;;3.03;2.17;;;11.20;30.20;;;;;;7389782;19;20011;-71
2023/09/24 00:48:32;;;;;;;4.57;2.33;;;11.10;34.90;;;;;;7388617;19;20012;-71
2023/09/24 00:51:04;;;;;;;4.13;2.30;;;11.10;36.80;;;;;;7388769;19;20011;-71
2023/09/24 00:53:38;;;;;;;5.00;2.60;;;11.10;39.60;;;;;;7391454;19;20526;-70
2023/09/24 00:56:08;;;;;;;4.45;2.60;;;11.10;40.10;;;;;;7390518;19;20027;-71
2023/09/24 00:58:40;;;;;;;3.92;2.10;;;11.10;40.40;;;;;;7388877;19;20027;-72
2023/09/24 01:01:11;;;;;;;3.75;2.40;;;11.10;41.00;;;;;;7389023;19;20031;-72
2023/09/24 01:03:41;;;;;;;4.38;3.10;;;11.00;39.40;;;;;;7390063;19;20617;-72
2023/09/24 01:06:11;;;;;;;5.65;3.03;;;11.00;39.00;;;;;;7390093;19;20010;-72
2023/09/24 01:08:44;;;;;;;5.03;2.65;;;11.00;39.50;;;;;;7389311;19;20007;-70
2023/09/24 01:11:15;;;;;;;5.00;2.97;;;10.90;39.60;;;;;;7390039;19;20021;-70
2023/09/24 01:13:46;;;;;;;4.22;2.30;;;10.90;41.60;;;;;;7389886;19;20494;-70
2023/09/24 01:16:16;;;;;;;6.32;2.80;;;10.90;42.90;;;;;;7387405;19;20018;-71
2023/09/24 01:18:47;;;;;;;4.95;3.20;;;10.90;45.60;;;;;;7388803;19;20010;-71
2023/09/24 01:21:18;;;;;;;7.60;3.33;;;10.90;48.00;;;;;;7390511;19;20022;-70
2023/09/24 01:23:51;;;;;;;5.80;3.45;;;10.90;50.80;;;;;;7389950;19;20485;-71
2023/09/24 01:26:24;;;;;;;5.20;3.33;;;10.90;52.30;;;;;;7389297;19;20028;-71
2023/09/24 01:28:54;;;;;;;3.92;3.10;;;10.90;51.10;;;;;;7392065;19;20039;-71
2023/09/24 01:31:26;;;;;;;5.57;3.00;;;10.80;52.40;;;;;;7395519;19;20047;-71
2023/09/24 01:33:56;;;;;;;5.78;3.47;;;10.70;55.10;;;;;;7394504;19;21613;-71
2023/09/24 01:36:26;;;;;;;14.80;3.85;;;10.70;62.20;;;;;;7392096;19;20442;-70
2023/09/24 01:38:59;;;;;;;4.43;3.88;;;10.70;65.00;;;;;;7395268;19;20088;-70
2023/09/24 01:41:32;;;;;;;5.45;4.22;;;10.70;70.40;;;;;;7392869;19;20021;-71
2023/09/24 01:44:02;;;;;;;5.40;4.05;;;10.60;77.90;;;;;;7396335;19;20487;-70
2023/09/24 01:46:32;;;;;;;6.78;4.13;;;10.60;80.10;;;;;;7395023;19;20443;-70
2023/09/24 01:49:02;;;;;;;9.75;4.47;;;10.50;83.70;;;;;;7394977;19;20441;-70
2023/09/24 01:51:32;;;;;;;7.30;4.65;;;10.50;88.80;;;;;;7395996;19;20028;-70
2023/09/24 01:54:05;;;;;;;6.90;4.70;;;10.40;94.30;;;;;;7395876;19;20082;-71
2023/09/24 01:56:35;;;;;;;6.35;5.00;;;10.30;98.30;;;;;;7395493;19;20018;-71
2023/09/24 01:59:06;;;;;;;6.82;4.53;;;10.30;99.80;;;;;;7396416;19;20010;-70
2023/09/24 02:01:36;;;;;;;6.72;4.53;;;10.40;99.90;;;;;;7395464;19;20031;-72
2023/09/24 02:04:07;;;;;;;5.55;4.10;;;10.30;99.90;;;;;;7395920;19;20088;-72
2023/09/24 02:06:37;;;;;;;6.70;4.45;;;10.30;99.90;;;;;;7394186;19;20599;-71
2023/09/24 02:09:13;;;;;;;7.95;4.82;;;10.40;99.90;;;;;;7395484;19;20011;-72
2023/09/24 02:11:43;;;;;;;6.78;4.68;;;10.30;99.90;;;;;;7394772;19;20015;-71
2023/09/24 02:14:14;;;;;;;9.27;4.97;;;10.30;99.90;;;;;;7395933;19;20018;-71
2023/09/24 02:16:45;;;;;;;6.97;4.75;;;10.30;99.90;;;;;;7394068;19;20018;-70
2023/09/24 02:19:17;;;;;;;8.73;4.45;;;10.40;99.90;;;;;;7395315;19;20018;-71
2023/09/24 02:21:47;;;;;;;6.78;4.47;;;10.30;99.90;;;;;;7395921;19;20453;-71
2023/09/24 02:24:20;;;;;;;6.10;4.57;;;10.30;99.90;;;;;;7393891;19;20039;-71
2023/09/24 02:26:50;;;;;;;5.57;4.35;;;10.40;99.90;;;;;;7396184;19;20006;-71
2023/09/24 02:29:20;;;;;;;6.32;4.55;;;10.30;99.60;;;;;;7393633;19;20015;-71
2023/09/24 02:31:52;;;;;;;6.32;4.75;;;10.40;98.80;;;;;;7396171;19;20633;-71
2023/09/24 02:34:22;;;;;;;5.97;4.88;;;10.40;97.40;;;;;;7394891;19;20047;-70
2023/09/24 02:36:52;;;;;;;6.20;4.68;;;10.40;95.70;;;;;;7395967;19;20053;-71
2023/09/24 02:39:25;;;;;;;7.43;4.53;;;10.30;95.50;;;;;;7395083;19;20078;-71
2023/09/24 02:42:01;;;;;;;5.07;4.55;;;10.30;94.40;;;;;;7392541;19;20074;-71
2023/09/24 02:44:31;;;;;;;7.10;4.97;;;10.20;96.70;;;;;;7393368;19;20026;-72
2023/09/24 02:47:01;;;;;;;6.78;4.88;;;10.20;98.20;;;;;;7397157;19;20010;-71
2023/09/24 02:49:32;;;;;;;8.93;4.72;;;10.20;99.90;;;;;;7395151;19;20019;-70
2023/09/24 02:51:59;;;;;;;5.80;4.90;;;10.20;99.90;;;;;;7395132;19;20070;-71
2023/09/24 02:54:32;;;;;;;8.63;5.25;;;10.20;99.90;;;;;;7392903;19;20098;-71
2023/09/24 02:57:03;;;;;;;9.07;5.68;;;10.20;99.90;;;;;;7394342;19;20011;-71
2023/09/24 02:59:34;;;;;;;9.98;5.72;;;10.10;99.90;;;;;;7392539;19;20074;-71
2023/09/24 03:02:05;;;;;;;8.00;5.57;;;10.10;99.90;;;;;;7396153;19;20082;-71
2023/09/24 03:04:35;;;;;;;8.07;5.55;;;10.00;99.90;;;;;;7393874;19;20030;-71
2023/09/24 03:07:10;;;;;;;8.45;5.30;;;10.00;99.90;;;;;;7393444;19;20017;-72
2023/09/24 03:09:43;;;;;;;6.30;4.38;;;10.00;99.90;;;;;;7394271;19;20483;-71
2023/09/24 03:12:13;;;;;;;6.68;5.30;;;9.90;99.90;;;;;;7395112;19;20010;-71
2023/09/24 03:14:43;;;;;;;7.25;4.40;;;9.70;99.90;;;;;;7392437;19;20466;-71
2023/09/24 03:17:13;;;;;;;6.53;4.88;;;9.60;99.90;;;;;;7393682;19;20470;-71
2023/09/24 03:19:43;;;;;;;5.45;4.45;;;9.60;99.90;;;;;;7393940;19;20454;-71
2023/09/24 03:22:12;;;;;;;6.63;4.50;;;9.60;99.90;;;;;;7393277;19;20126;-71
2023/09/24 03:24:47;;;;;;;6.60;4.80;;;9.60;99.90;;;;;;7392080;19;20050;-71
2023/09/24 03:27:17;;;;;;;;;;;9.50;99.90;;;;;;7395517;19;20483;-71
2023/09/24 03:29:47;;;;;;;7.00;4.97;;;9.50;99.90;;;;;;7393504;19;19978;-71
2023/09/24 03:32:17;;;;;;;7.70;5.30;;;9.40;99.90;;;;;;7394322;19;20022;-71
2023/09/24 03:34:47;;;;;;;7.65;4.97;;;9.40;99.90;;;;;;7393705;19;20088;-72
2023/09/24 03:37:17;;;;;;;6.47;4.63;;;9.50;99.90;;;;;;7393016;19;20014;-70
2023/09/24 03:39:49;;;;;;;9.75;5.47;;;9.50;99.90;;;;;;7392629;19;20069;-71
2023/09/24 03:42:19;;;;;;;8.85;6.22;;;9.60;99.90;;;;;;7392570;19;20358;-71
2023/09/24 03:44:50;;;;;;;9.55;5.85;;;9.60;99.90;;;;;;7392582;19;20014;-70
2023/09/24 03:47:20;;;;;;;7.35;5.43;;;9.60;99.90;;;;;;7394012;19;20021;-70
2023/09/24 03:49:50;;;;;;;7.63;5.57;;;9.70;99.90;;;;;;7393289;19;20002;-71
2023/09/24 03:52:19;;;;;;;8.00;5.20;;;9.60;99.90;;;;;;7390961;19;20020;-72
2023/09/24 03:54:52;;;;;;;6.13;5.13;;;9.60;99.90;;;;;;7392909;19;20345;-71
2023/09/24 03:57:27;;;;;;;7.05;4.82;;;9.60;99.90;;;;;;7394353;19;20039;-70
2023/09/24 03:59:57;;;;;;;6.70;5.20;;;9.60;99.90;;;;;;7392391;19;20022;-70
2023/09/24 04:02:28;;;;;;;6.85;5.10;;;9.60;99.90;;;;;;7393248;19;20018;-71
2023/09/24 04:04:58;;;;;;;8.55;5.40;;;9.50;99.90;;;;;;7390951;19;20348;-71
2023/09/24 04:07:28;;;;;;;6.07;5.30;;;9.60;99.90;;;;;;7393898;19;20491;-70
2023/09/24 04:10:00;;;;;;;8.15;5.30;;;9.60;99.90;;;;;;7391087;19;20090;-71
2023/09/24 04:12:33;;;;;;;6.60;4.75;;;9.60;99.90;;;;;;7393232;19;20014;-70
2023/09/24 04:15:03;;;;;;;7.63;4.88;;;9.60;99.90;;;;;;7392041;19;20070;-70
2023/09/24 04:17:36;;;;;;;6.45;4.45;;;9.60;99.90;;;;;;7391136;19;20027;-71
2023/09/24 04:20:12;;;;;;;9.70;5.28;;;9.60;99.90;;;;;;7390846;19;20011;-71
2023/09/24 04:22:43;;;;;;;8.73;4.80;;;9.60;99.90;;;;;;7392791;19;20497;-72
2023/09/24 04:25:17;;;;;;;8.93;5.10;;;9.70;99.90;;;;;;7391603;19;20014;-71
2023/09/24 04:27:48;;;;;;;;;;;9.70;99.90;;;;;;7393565;19;20377;-71
2023/09/24 04:30:19;;;;;;;8.27;5.20;;;9.70;99.90;;;;;;7389875;19;20324;-71
2023/09/24 04:32:52;;;;;;;7.38;5.32;;;9.60;99.90;;;;;;7393490;19;20034;-71
2023/09/24 04:35:27;;;;;;;10.05;5.50;;;9.60;99.90;;;;;;7391726;19;20083;-70
2023/09/24 04:37:58;;;;;;;7.40;5.35;;;9.60;99.90;;;;;;7392535;19;20490;-71
2023/09/24 04:40:33;;;;;;;7.90;5.35;;;9.60;99.90;;;;;;7389947;19;20086;-70
2023/09/24 04:43:04;;;;;;;5.72;5.13;;;9.60;99.90;;;;;;7392089;19;20014;-71
2023/09/24 04:45:35;;;;;;;7.13;4.90;;;9.60;99.90;;;;;;7391156;19;20031;-71
2023/09/24 04:48:06;;;;;;;5.80;5.20;;;9.60;99.90;;;;;;7391411;19;20038;-72
2023/09/24 04:50:36;;;;;;;7.03;5.45;;;9.50;99.90;;;;;;7391533;19;20031;-70
2023/09/24 04:53:07;;;;;;;5.88;5.00;;;9.50;99.90;;;;;;7390407;19;20014;-72
2023/09/24 04:55:39;;;;;;;6.05;5.20;;;9.60;99.90;;;;;;7390764;19;20021;-71
2023/09/24 04:58:11;;;;;;;8.43;6.05;;;9.50;99.90;;;;;;7391683;19;20095;-72
2023/09/24 05:00:41;;;;;;;7.32;5.03;;;9.50;99.90;;;;;;7391695;19;20082;-70
2023/09/24 05:03:11;;;;;;;7.60;5.53;;;9.60;99.90;;;;;;7390496;19;20082;-72
2023/09/24 05:05:43;;;;;;;7.03;5.38;;;9.60;99.90;;;;;;7395697;19;20021;-71
2023/09/24 05:08:13;;;;;;;9.20;5.20;;;9.50;99.90;;;;;;7396332;19;20022;-71
2023/09/24 05:10:46;;;;;;;11.27;5.30;;;9.50;99.90;;;;;;7399912;19;20089;-70
2023/09/24 05:13:16;;;;;;;8.20;6.10;;;9.50;99.90;;;;;;7424020;19;20568;-70
2023/09/24 05:15:53;;;;;;;7.43;5.20;;;9.50;99.90;;;;;;7398231;19;20022;-70
2023/09/24 05:18:24;;;;;;;5.35;4.82;;;9.60;99.90;;;;;;7397200;19;20351;-71
2023/09/24 05:20:54;;;;;;;7.35;4.72;;;9.60;99.90;;;;;;7398937;19;20026;-71
2023/09/24 05:23:25;;;;;;;5.70;5.10;;;9.70;99.90;;;;;;7400896;19;20071;-72
2023/09/24 05:25:57;;;;;;;7.07;5.10;;;9.70;99.90;;;;;;7397958;19;20078;-71
2023/09/24 05:28:27;;;;;;;4.63;4.22;;;9.70;99.90;;;;;;7397513;19;20709;-71
2023/09/24 05:30:57;;;;;;;6.85;4.95;;;9.70;99.90;;;;;;7397866;19;20030;-71
2023/09/24 05:33:27;;;;;;;6.07;5.07;;;9.80;99.90;;;;;;7398276;19;20078;-70
2023/09/24 05:35:58;;;;;;;6.70;4.85;;;9.80;99.90;;;;;;7397001;19;20357;-70
2023/09/24 05:38:29;;;;;;;7.25;4.68;;;9.80;99.90;;;;;;7395336;19;20014;-70
2023/09/24 05:41:02;;;;;;;5.63;4.78;;;9.80;99.90;;;;;;7397119;19;20025;-71
2023/09/24 05:43:32;;;;;;;9.40;5.30;;;9.90;99.90;;;;;;7397644;19;20018;-71
2023/09/24 05:46:03;;;;;;;7.53;4.90;;;9.90;99.90;;;;;;7396349;19;20021;-71
2023/09/24 05:48:33;;;;;;;6.47;4.63;;;9.90;99.90;;;;;;7392895;19;20015;-72
2023/09/24 05:51:05;;;;;;;6.05;4.25;;;10.00;99.90;;;;;;7394487;19;20018;-71
2023/09/24 05:53:35;;;;;;;5.93;4.45;;;10.00;99.90;;;;;;7396362;19;20026;-70
2023/09/24 05:56:08;;;;;;;5.47;4.22;;;10.10;99.90;;;;;;7394287;19;20015;-71
2023/09/24 05:58:38;;;;;;;4.72;4.18;;;10.20;99.90;;;;;;7394195;19;20108;-74
2023/09/24 06:01:08;;;;;;;6.43;4.38;;;10.30;98.70;;;;;;7393153;19;20018;-71
2023/09/24 06:03:38;;;;;;;7.55;4.13;;;10.40;95.30;;;;;;7394398;19;20015;-70
2023/09/24 06:06:10;;;;;;;4.88;4.22;;;10.40;83.60;;;;;;7392760;19;20019;-71
2023/09/24 06:08:41;;;;;;;5.72;4.13;;;10.50;85.20;;;;;;7394474;19;20088;-71
2023/09/24 06:11:13;;;;;;;6.18;4.10;;;10.50;78.50;;;;;;7393411;19;20025;-71
2023/09/24 06:13:43;;;;;;;7.43;4.07;;;10.60;73.00;;;;;;7392605;19;20026;-71
2023/09/24 06:16:13;;;;;;;10.25;4.05;;;10.60;63.60;;;;;;7393001;19;20089;-71
2023/09/24 06:18:45;;;;;;;4.57;3.70;;;10.60;63.80;;;;;;7394113;19;20031;-71
2023/09/24 06:21:18;;;;;;;10.05;4.40;;;10.70;63.70;;;;;;7394583;19;20014;-73
2023/09/24 06:23:48;;;;;;;4.30;3.90;;;10.60;59.80;;;;;;7393771;19;20031;-70
2023/09/24 06:26:21;;;;;;;5.40;3.97;;;10.70;56.20;;;;;;7391085;19;20022;-72
2023/09/24 06:28:51;;;;;;;8.85;3.97;;;10.90;55.10;;;;;;7389176;19;20023;-71
2023/09/24 06:31:37;;;;;;;5.43;4.05;;;11.00;52.90;;;;;;7393561;19;20010;-69
2023/09/24 06:34:07;;;;;;;5.18;3.55;;;11.20;47.80;;;;;;7393058;19;20038;-71
2023/09/24 06:36:37;;;;;;;4.82;3.92;;;11.20;37.70;;;;;;7393227;19;20032;-70
2023/09/24 06:39:13;;;;;;;6.82;4.00;;;11.30;38.40;;;;;;7392873;19;20530;-71
2023/09/24 06:41:46;;;;;;;4.57;3.75;;;11.40;31.30;;;;;;7393189;19;20015;-71
2023/09/24 06:44:23;;;;;;;5.65;4.18;;;11.40;23.10;;;;;;7392946;19;20022;-72
2023/09/24 06:46:56;;;;;;;5.57;4.18;;;11.60;18.80;;;;;;7253653;19;2723446;-71
2023/09/24 06:49:26;;;;;;;6.47;3.70;;;11.50;16.50;;;;;;7394928;19;20022;-70
2023/09/24 06:51:56;;;;;;;5.93;3.20;;;11.50;22.50;;;;;;7394817;19;20021;-71
2023/09/24 06:54:26;;;;;;;8.88;3.72;;;11.80;22.80;;;;;;7394098;19;20458;-71
2023/09/24 06:56:59;;;;;;;6.78;3.95;;;11.70;13.20;;;;;;7393893;19;20074;-71
2023/09/24 06:59:29;;;;;;;4.43;3.40;;;11.80;16.00;;;;;;7392636;19;20429;-72
2023/09/24 07:01:59;;;;;;;4.40;3.70;;;11.90;14.10;;;;;;7393232;19;20010;-72
2023/09/24 07:04:29;;;;;;;4.53;3.83;;;12.00;7.80;;;;;;7394132;19;20474;-72
2023/09/24 07:06:59;;;;;;;5.32;3.72;;;12.00;7.60;;;;;;7395569;19;20110;-72
2023/09/24 07:09:29;;;;;;;5.55;3.33;;;12.00;3.10;;;;;;7393568;19;20466;-71
2023/09/24 07:12:02;;;;;;;5.10;3.55;;;12.00;8.50;;;;;;7392226;19;20086;-72
2023/09/24 07:14:32;;;;;;;4.55;3.55;;;12.10;6.00;;;;;;7393502;19;20019;-72
2023/09/24 07:17:02;;;;;;;6.72;3.92;;;12.10;3.10;;;;;;7394416;19;20014;-71
2023/09/24 07:19:34;;;;;;;4.03;3.58;;;12.10;1.00;;;;;;7392303;19;20029;-72
2023/09/24 07:22:05;;;;;;;5.10;3.60;;;12.20;1.00;;;;;;7394313;19;20014;-71
2023/09/24 07:24:35;;;;;;;5.20;3.70;;;12.50;1.00;;;;;;7391635;19;20486;-71
2023/09/24 07:27:10;;;;;;;5.57;3.63;;;12.60;1.00;;;;;;7391544;19;20039;-71
2023/09/24 07:29:41;;;;;;;4.75;3.42;;;12.60;1.00;;;;;;7393657;19;20018;-71
2023/09/24 07:32:11;;;;;;;4.93;3.47;;;12.50;1.00;;;;;;7393790;19;20031;-72
2023/09/24 07:34:41;;;;;;;5.75;3.55;;;12.70;1.00;;;;;;7391314;19;20458;-71
2023/09/24 07:37:11;;;;;;;4.97;3.42;;;12.70;1.00;;;;;;7394758;19;20023;-71
2023/09/24 07:39:49;;;;;;;4.25;3.30;;;12.60;1.00;;;;;;7391482;19;20021;-71
2023/09/24 07:42:21;;;;;;;5.95;3.13;;;12.80;1.00;;;;;;7393272;19;20086;-72
2023/09/24 07:44:51;;;;;;;5.82;3.50;;;12.80;1.00;;;;;;7393521;19;20089;-72
2023/09/24 07:47:21;;;;;;;4.88;3.17;;;12.80;1.00;;;;;;7393474;19;20077;-71
2023/09/24 07:49:51;;;;;;;8.00;3.00;;;12.80;1.00;;;;;;7393065;19;20085;-71
2023/09/24 07:52:21;;;;;;;4.63;2.95;;;12.90;1.00;;;;;;7393368;19;20089;-72
2023/09/24 07:54:51;;;;;;;5.20;3.15;;;13.30;1.00;;;;;;7392301;19;20102;-72
2023/09/24 07:57:24;;;;;;;4.10;2.88;;;13.30;1.00;;;;;;7392346;19;20019;-71
2023/09/24 07:59:53;;;;;;;4.45;3.35;;;13.30;1.00;;;;;;7394396;19;20018;-70
2023/09/24 08:02:23;;;;;;;4.03;3.13;;;13.30;1.00;;;;;;7392432;19;20047;-70
2023/09/24 08:04:54;;;;;;;3.58;2.70;;;13.40;1.00;;;;;;7392799;19;20395;-70
2023/09/24 08:07:26;;;;;;;4.20;3.08;;;13.60;1.00;;;;;;7393153;19;20051;-71
2023/09/24 08:09:56;;;;;;;5.80;2.58;;;13.40;1.00;;;;;;7391799;19;20030;-71
2023/09/24 08:12:28;;;;;;;4.18;2.90;;;13.70;1.00;;;;;;7392670;19;20526;-71
2023/09/24 08:14:58;;;;;;;6.07;2.80;;;14.00;1.00;;;;;;7391651;19;20031;-71
2023/09/24 08:17:28;;;;;;;4.00;2.50;;;14.30;1.00;;;;;;7392811;19;20018;-71
2023/09/24 08:19:58;;;;;;;3.10;2.53;;;14.20;1.00;;;;;;7390458;19;20015;-71
2023/09/24 08:22:28;;;;;;;5.45;2.90;;;14.00;1.00;;;;;;7392082;19;20057;-70
2023/09/24 08:24:58;;;;;;;4.35;2.30;;;14.30;1.00;;;;;;7391313;19;20022;-71
2023/09/24 08:27:31;;;;;;;3.42;2.35;;;14.40;1.00;;;;;;7391977;19;20018;-71
2023/09/24 08:29:58;;;;;;;2.42;1.90;;;14.50;1.00;;;;;;7391251;19;20018;-71
2023/09/24 08:32:28;;;;;;;4.95;2.13;;;14.60;1.00;;;;;;7390944;19;20044;-71
2023/09/24 08:34:58;;;;;;;4.78;2.22;;;14.80;1.00;;;;;;7389553;19;20022;-71
2023/09/24 08:37:28;;;;;;;5.07;2.85;;;14.90;1.00;;;;;;7390872;19;20015;-70
2023/09/24 08:39:58;;;;;;;3.90;2.08;;;15.00;1.00;;;;;;7390638;19;20021;-70
2023/09/24 08:42:31;;;;;;;3.63;1.92;;;15.20;1.00;;;;;;7390916;19;20090;-70
2023/09/24 08:45:13;;;;;;;5.63;2.50;;;15.40;1.00;;;;;;7391224;19;20035;-71
2023/09/24 08:47:43;;;;;;;3.28;2.28;;;15.30;1.00;;;;;;7391461;19;20113;-72
2023/09/24 08:50:15;;;;;;;4.78;2.40;;;15.40;1.00;;;;;;7391946;19;20019;-71
2023/09/24 08:52:47;;;;;;;6.18;2.50;;;15.30;1.00;;;;;;7416802;19;20025;-71
2023/09/24 08:55:17;;;;;;;2.90;1.90;;;15.30;1.00;;;;;;7400022;19;20078;-70
2023/09/24 08:57:50;;;;;;;3.78;2.20;;;15.40;1.00;;;;;;7391326;19;20022;-71
2023/09/24 09:00:20;;;;;;;4.97;2.20;;;15.50;1.00;;;;;;7390794;19;20039;-71
2023/09/24 09:02:50;;;;;;;3.45;2.00;;;15.60;1.00;;;;;;7391398;19;20052;-70
2023/09/24 09:05:24;;;;;;;4.53;1.90;;;15.70;1.00;;;;;;7388817;19;20014;-71
2023/09/24 09:07:58;;;;;;;2.70;1.85;;;15.60;1.00;;;;;;7391321;19;20933;-70
2023/09/24 09:10:28;;;;;;;;;;;15.70;1.00;;;;;;7390712;19;20018;-70
2023/09/24 09:13:13;;;;;;;3.83;1.50;;;15.90;1.00;;;;;;7391246;19;19974;-71
2023/09/24 09:15:45;;;;;;;3.03;1.75;;;15.70;1.00;;;;;;7390318;19;20351;-71
2023/09/24 09:18:25;;;;;;;3.65;1.98;;;15.70;1.00;;;;;;7388767;19;20104;-72
2023/09/24 09:20:59;;;;;;;5.57;2.00;;;15.90;1.00;;;;;;7390954;19;20037;-70
2023/09/24 09:23:34;;;;;;;2.80;1.70;;;16.30;1.00;;;;;;7385123;19;20010;-70
2023/09/24 09:26:09;;;;;;;4.90;1.73;;;16.20;1.00;;;;;;7387004;19;20436;-71
2023/09/24 09:28:41;;;;;;;3.08;1.80;;;16.10;1.00;;;;;;7388712;19;20002;-70
2023/09/24 09:31:12;;;;;;;3.53;2.05;;;16.40;1.00;;;;;;7386170;19;20343;-71
2023/09/24 09:33:45;;;;;;;2.53;1.63;;;16.20;1.00;;;;;;7388123;19;20006;-71
2023/09/24 09:36:23;;;;;;;4.32;1.75;;;16.20;1.00;;;;;;7385548;19;20014;-71
2023/09/24 09:38:57;;;;;;;2.85;1.60;;;16.30;1.00;;;;;;7388715;19;20028;-71
2023/09/24 09:41:28;;;;;;;4.25;2.00;;;16.50;1.00;;;;;;7388896;19;20483;-72
2023/09/24 09:44:07;;;;;;;3.42;1.60;;;16.60;1.00;;;;;;7388332;19;20041;-71
2023/09/24 09:46:40;;;;;;;2.25;1.70;;;16.50;1.00;;;;;;7387311;19;20114;-71
2023/09/24 09:49:11;;;;;;;2.47;1.80;;;16.70;1.00;;;;;;7388073;19;20070;-72
2023/09/24 09:51:47;;;;;;;3.35;1.63;;;16.60;1.00;;;;;;7395758;19;20405;-70
2023/09/24 09:54:18;;;;;;;2.13;1.38;;;16.90;1.00;;;;;;7395665;19;20479;-72
2023/09/24 09:56:49;;;;;;;4.82;1.50;;;16.90;1.00;;;;;;7395620;19;20015;-72
2023/09/24 09:59:23;;;;;;;3.42;1.67;;;17.00;1.00;;;;;;7395120;19;20482;-71
2023/09/24 10:01:53;;;;;;;1.60;1.40;;;17.10;1.00;;;;;;7396813;19;20341;-71
2023/09/24 10:04:25;;;;;;;3.13;1.60;;;17.10;1.00;;;;;;7396101;19;20027;-71
2023/09/24 10:06:55;;;;;;;3.35;1.70;;;17.30;1.00;;;;;;7394589;19;20031;-71
2023/09/24 10:09:39;;;;;;;4.22;1.40;;;17.10;1.00;;;;;;7395197;19;20374;-70
2023/09/24 10:12:10;;;;;;;2.00;1.38;;;17.00;1.00;;;;;;7393993;19;20018;-71
2023/09/24 10:14:45;;;;;;;3.38;1.55;;;17.20;1.00;;;;;;7392682;19;20039;-70
2023/09/24 10:17:23;;;;;;;2.88;1.38;;;17.00;1.00;;;;;;7394940;19;20039;-72
2023/09/24 10:19:55;;;;;;;2.42;1.33;;;16.80;1.00;;;;;;7394858;19;20015;-73
2023/09/24 10:22:34;;;;;;;4.25;1.63;;;16.90;1.00;;;;;;7394012;19;20018;-72
2023/09/24 10:25:25;;;;;;;4.53;1.40;;;17.20;1.00;;;;;;7393451;19;20019;-71
2023/09/24 10:28:06;;;;;;;3.03;1.50;;;17.10;1.00;;;;;;7395769;19;20013;-70
2023/09/24 10:31:08;;;;;;;2.30;1.17;;;17.40;1.00;;;;;;7396856;19;20018;-71
2023/09/24 10:33:57;;;;;;;2.17;1.25;;;17.30;1.00;;;;;;7397335;19;20018;-71
2023/09/24 10:36:30;;;;;;;2.10;1.40;;;17.20;1.00;;;;;;7394101;19;20091;-70
2023/09/24 10:39:05;;;;;;;2.03;1.42;;;17.40;1.00;;;;;;7391906;19;20348;-70
2023/09/24 10:41:37;;;;;;;3.05;1.33;;;17.90;1.00;;;;;;7394824;19;20028;-72
2023/09/24 10:44:26;;;;;;;4.38;1.70;;;18.10;1.00;;;;;;7393529;19;20443;-72
2023/09/24 10:47:00;;;;;;;2.80;1.55;;;17.70;1.00;;;;;;7392981;19;20014;-70
2023/09/24 10:49:30;;;;;;;4.38;1.35;;;17.70;1.00;;;;;;7394134;19;20123;-71
2023/09/24 10:52:01;;;;;;;3.80;1.50;;;17.70;1.00;;;;;;7393004;19;20770;-71
2023/09/24 10:54:31;;;;;;;2.15;1.40;;;17.60;1.00;;;;;;7393996;19;20025;-70
2023/09/24 10:57:01;;;;;;;3.45;1.50;;;17.50;1.00;;;;;;7393687;19;20027;-71
2023/09/24 10:59:35;;;;;;;2.85;1.40;;;17.60;1.00;;;;;;7394814;19;20060;-72
2023/09/24 11:02:19;;;;;;;;;;;17.60;1.00;;;;;;7392521;19;20031;-73
2023/09/24 11:04:51;;;;;;;3.13;1.42;;;17.80;1.00;;;;;;7393028;19;20022;-71
2023/09/24 11:07:21;;;;;;;2.97;1.40;;;17.90;1.00;;;;;;7391331;19;20011;-72
2023/09/24 11:09:51;;;;;;;3.08;1.30;;;17.90;1.00;;;;;;7393055;19;20078;-70
2023/09/24 11:12:21;;;;;;;3.42;1.33;;;17.90;1.00;;;;;;7393366;19;20070;-72
2023/09/24 11:14:58;;;;;;;2.80;1.10;;;18.10;1.00;;;;;;7392075;19;20018;-71
2023/09/24 11:17:33;;;;;;;4.50;1.27;;;18.10;1.00;;;;;;7393342;19;20046;-71
2023/09/24 11:20:11;;;;;;;3.35;1.20;;;18.30;1.00;;;;;;7392455;19;20015;-72
2023/09/24 11:22:42;;;;;;;3.17;1.77;;;18.40;1.00;;;;;;7391167;19;20489;-71
2023/09/24 11:25:16;;;;;;;3.17;1.20;;;18.20;1.00;;;;;;7392665;19;20011;-71
2023/09/24 11:27:50;;;;;;;3.30;1.30;;;18.20;1.00;;;;;;7393542;19;20023;-72
2023/09/24 11:30:22;;;;;;;2.55;1.40;;;17.90;1.00;;;;;;7393141;19;20358;-71
2023/09/24 11:32:55;;;;;;;4.20;1.38;;;18.10;1.00;;;;;;7391752;19;20021;-72
2023/09/24 11:35:27;;;;;;;3.05;1.40;;;18.30;1.00;;;;;;7390618;19;20126;-71
2023/09/24 11:37:59;;;;;;;2.17;1.45;;;18.50;1.00;;;;;;7392847;19;20090;-71
2023/09/24 11:40:31;;;;;;;3.35;1.48;;;18.70;1.00;;;;;;7392956;19;20636;-71
2023/09/24 11:43:02;;;;;;;2.28;1.05;;;18.90;1.00;;;;;;7390729;19;20030;-72
2023/09/24 11:45:46;;;;;;;3.25;2.10;;;18.60;1.00;;;;;;7392396;19;20369;-72
2023/09/24 11:48:21;;;;;;;2.55;1.30;;;18.80;1.00;;;;;;7391913;19;20018;-71
2023/09/24 11:50:52;;;;;;;;;;;18.60;1.00;;;;;;7392329;19;20416;-70
2023/09/24 11:53:25;;;;;;;2.85;1.30;;;18.60;1.00;;;;;;7392921;19;20332;-72
2023/09/24 11:55:57;;;;;;;2.38;1.00;;;18.50;1.00;;;;;;7390583;19;20010;-70
2023/09/24 11:58:28;;;;;;;3.38;1.48;;;18.50;1.00;;;;;;7391658;19;20014;-71
2023/09/24 12:01:01;;;;;;;2.83;1.45;;;18.70;1.00;;;;;;7391484;19;20066;-71
2023/09/24 12:03:34;;;;;;;2.60;1.38;;;18.70;1.00;;;;;;7391259;19;20019;-72
2023/09/24 12:06:04;;;;;;;2.67;1.48;;;18.50;1.00;;;;;;7390893;19;20035;-71
2023/09/24 12:08:34;;;;;;;2.20;1.35;;;18.80;1.00;;;;;;7390428;19;20102;-72
2023/09/24 12:11:04;;;;;;;1.95;1.23;;;19.10;1.00;;;;;;7390175;19;20051;-71
2023/09/24 12:13:34;;;;;;;3.47;1.10;;;19.20;1.00;;;;;;7389603;19;20027;-71
2023/09/24 12:16:04;;;;;;;2.03;1.00;;;18.80;1.00;;;;;;7389431;19;20021;-71
2023/09/24 12:18:37;;;;;;;2.00;1.17;;;18.80;1.00;;;;;;7388044;19;20030;-71
2023/09/24 12:21:07;;;;;;;1.65;0.90;;;18.90;1.00;;;;;;7391003;19;20083;-71
2023/09/24 12:23:37;;;;;;;1.77;0.95;;;19.00;1.00;;;;;;7390633;19;20017;-71
2023/09/24 12:26:07;;;;;;;2.55;1.33;;;19.10;1.00;;;;;;7389885;19;20035;-71
2023/09/24 12:28:37;;;;;;;2.92;1.33;;;19.00;1.00;;;;;;7390297;19;20016;-71
2023/09/24 12:31:09;;;;;;;1.67;1.02;;;19.10;1.00;;;;;;7381458;19;20036;-72
2023/09/24 12:33:42;;;;;;;2.70;1.27;;;19.00;1.00;;;;;;7389992;19;20010;-71
2023/09/24 12:36:12;;;;;;;2.55;1.10;;;19.10;1.00;;;;;;7389599;19;20021;-71
2023/09/24 12:38:42;;;;;;;2.83;1.52;;;19.10;1.00;;;;;;7388803;19;20362;-72
2023/09/24 12:41:12;;;;;;;2.97;1.25;;;19.00;1.00;;;;;;7390641;19;20019;-72
2023/09/24 12:43:42;;;;;;;3.15;1.30;;;19.10;1.00;;;;;;7390254;19;20035;-71
2023/09/24 12:46:12;;;;;;;2.13;1.45;;;19.20;1.00;;;;;;7388949;19;20035;-71
2023/09/24 12:48:45;;;;;;;2.05;1.30;;;19.20;1.00;;;;;;7390328;19;20024;-71
2023/09/24 12:51:15;;;;;;;2.50;1.40;;;19.10;1.00;;;;;;7389766;19;20571;-71
2023/09/24 12:53:45;;;;;;;3.08;1.73;;;19.40;1.00;;;;;;7390641;19;20035;-71
2023/09/24 12:56:15;;;;;;;4.00;1.40;;;19.50;1.00;;;;;;7388458;19;20022;-71
2023/09/24 12:58:45;;;;;;;2.75;1.50;;;19.10;1.00;;;;;;7389333;19;20438;-72
2023/09/24 13:01:15;;;;;;;2.63;1.35;;;19.30;1.00;;;;;;7379506;19;20011;-71
2023/09/24 13:03:48;;;;;;;2.63;1.52;;;19.50;1.00;;;;;;7372461;19;20097;-73
2023/09/24 13:06:22;;;;;;;4.53;1.75;;;19.60;1.00;;;;;;7372788;19;20014;-72
2023/09/24 13:08:52;;;;;;;3.50;1.50;;;19.80;1.00;;;;;;7372151;19;20010;-72
2023/09/24 13:11:22;;;;;;;2.33;1.40;;;19.80;1.00;;;;;;7372574;19;20010;-71
2023/09/24 13:13:52;;;;;;;2.38;1.40;;;19.80;1.00;;;;;;7372283;19;20574;-72
2023/09/24 13:16:23;;;;;;;6.13;1.60;;;19.90;1.00;;;;;;7368664;19;20035;-72
2023/09/24 13:18:56;;;;;;;2.38;1.20;;;19.70;1.00;;;;;;7372509;19;20011;-71
2023/09/24 13:21:26;;;;;;;2.25;1.48;;;19.80;1.00;;;;;;7370903;19;20014;-72